sensor_id;sensor_type;location;lat;lon;timestamp;P1;durP1;ratioP1;P2;durP2;ratioP2
37203;SDS011;23098;48.054;10.636;2022-07-29T00:01:33;8.05;;;4.35;;
37203;SDS011;23098;48.054;10.636;2022-07-29T00:04:01;7.43;;;4.07;;
37203;SDS011;23098;48.054;10.636;2022-07-29T00:06:28;6.95;;;3.30;;
37203;SDS011;23098;48.054;10.636;2022-07-29T00:08:53;5.20;;;3.40;;
37203;SDS011;23098;48.054;10.636;2022-07-29T00:11:19;6.68;;;3.80;;
37203;SDS011;23098;48.054;10.636;2022-07-29T00:13:44;7.25;;;3.97;;
37203;SDS011;23098;48.054;10.636;2022-07-29T00:16:10;9.93;;;4.15;;
37203;SDS011;23098;48.054;10.636;2022-07-29T00:18:35;5.53;;;3.13;;
37203;SDS011;23098;48.054;10.636;2022-07-29T00:21:01;5.93;;;2.97;;
37203;SDS011;23098;48.054;10.636;2022-07-29T00:23:26;5.72;;;3.20;;
37203;SDS011;23098;48.054;10.636;2022-07-29T00:25:52;5.10;;;3.25;;
37203;SDS011;23098;48.054;10.636;2022-07-29T00:28:17;6.45;;;3.33;;
37203;SDS011;23098;48.054;10.636;2022-07-29T00:30:43;7.40;;;3.58;;
37203;SDS011;23098;48.054;10.636;2022-07-29T00:33:09;5.95;;;3.67;;
37203;SDS011;23098;48.054;10.636;2022-07-29T00:35:35;7.53;;;3.38;;
37203;SDS011;23098;48.054;10.636;2022-07-29T00:38:10;3.88;;;3.08;;
37203;SDS011;23098;48.054;10.636;2022-07-29T00:40:37;6.32;;;3.70;;
37203;SDS011;23098;48.054;10.636;2022-07-29T00:43:02;5.30;;;3.60;;
37203;SDS011;23098;48.054;10.636;2022-07-29T00:45:28;6.07;;;4.22;;
37203;SDS011;23098;48.054;10.636;2022-07-29T00:47:54;6.13;;;4.22;;
37203;SDS011;23098;48.054;10.636;2022-07-29T00:50:20;7.40;;;4.20;;
37203;SDS011;23098;48.054;10.636;2022-07-29T00:52:46;6.75;;;4.40;;
37203;SDS011;23098;48.054;10.636;2022-07-29T00:55:12;6.25;;;4.15;;
37203;SDS011;23098;48.054;10.636;2022-07-29T00:57:40;6.15;;;4.20;;
37203;SDS011;23098;48.054;10.636;2022-07-29T01:00:07;6.13;;;4.30;;
37203;SDS011;23098;48.054;10.636;2022-07-29T01:02:36;7.05;;;4.07;;
37203;SDS011;23098;48.054;10.636;2022-07-29T01:05:02;6.60;;;4.43;;
37203;SDS011;23098;48.054;10.636;2022-07-29T01:07:29;7.22;;;4.20;;
37203;SDS011;23098;48.054;10.636;2022-07-29T01:09:56;5.55;;;3.83;;
37203;SDS011;23098;48.054;10.636;2022-07-29T01:12:27;6.72;;;3.60;;
37203;SDS011;23098;48.054;10.636;2022-07-29T01:14:57;5.07;;;3.55;;
37203;SDS011;23098;48.054;10.636;2022-07-29T01:20:18;4.47;;;3.83;;
37203;SDS011;23098;48.054;10.636;2022-07-29T01:23:07;5.20;;;3.75;;
37203;SDS011;23098;48.054;10.636;2022-07-29T01:30:51;7.97;;;4.18;;
37203;SDS011;23098;48.054;10.636;2022-07-29T01:33:18;6.75;;;4.43;;
37203;SDS011;23098;48.054;10.636;2022-07-29T01:36:07;6.10;;;3.70;;
37203;SDS011;23098;48.054;10.636;2022-07-29T01:38:37;6.72;;;3.90;;
37203;SDS011;23098;48.054;10.636;2022-07-29T01:41:07;6.80;;;3.97;;
37203;SDS011;23098;48.054;10.636;2022-07-29T01:46:14;6.00;;;3.25;;
37203;SDS011;23098;48.054;10.636;2022-07-29T01:48:52;5.45;;;3.38;;
37203;SDS011;23098;48.054;10.636;2022-07-29T01:51:29;3.17;;;2.70;;
37203;SDS011;23098;48.054;10.636;2022-07-29T01:56:33;3.60;;;2.40;;
37203;SDS011;23098;48.054;10.636;2022-07-29T01:59:01;3.40;;;2.42;;
37203;SDS011;23098;48.054;10.636;2022-07-29T02:01:30;7.00;;;2.70;;
37203;SDS011;23098;48.054;10.636;2022-07-29T02:03:58;4.35;;;2.53;;
37203;SDS011;23098;48.054;10.636;2022-07-29T02:06:27;2.40;;;2.03;;
37203;SDS011;23098;48.054;10.636;2022-07-29T02:08:56;4.65;;;2.10;;
37203;SDS011;23098;48.054;10.636;2022-07-29T02:11:24;2.63;;;2.30;;
37203;SDS011;23098;48.054;10.636;2022-07-29T02:13:49;3.78;;;2.25;;
37203;SDS011;23098;48.054;10.636;2022-07-29T02:16:20;3.58;;;2.13;;
37203;SDS011;23098;48.054;10.636;2022-07-29T02:18:47;7.38;;;2.10;;
37203;SDS011;23098;48.054;10.636;2022-07-29T02:21:19;2.92;;;2.10;;
37203;SDS011;23098;48.054;10.636;2022-07-29T02:23:47;2.83;;;1.90;;
37203;SDS011;23098;48.054;10.636;2022-07-29T02:26:14;4.28;;;1.80;;
37203;SDS011;23098;48.054;10.636;2022-07-29T02:28:41;2.85;;;2.00;;
37203;SDS011;23098;48.054;10.636;2022-07-29T02:31:07;3.88;;;2.05;;
37203;SDS011;23098;48.054;10.636;2022-07-29T02:33:34;4.13;;;1.67;;
37203;SDS011;23098;48.054;10.636;2022-07-29T02:36:00;2.55;;;2.00;;
37203;SDS011;23098;48.054;10.636;2022-07-29T02:38:27;2.95;;;1.67;;
37203;SDS011;23098;48.054;10.636;2022-07-29T02:41:15;2.05;;;1.67;;
37203;SDS011;23098;48.054;10.636;2022-07-29T02:43:50;4.20;;;1.70;;
37203;SDS011;23098;48.054;10.636;2022-07-29T02:46:30;6.47;;;1.80;;
37203;SDS011;23098;48.054;10.636;2022-07-29T02:49:04;2.78;;;1.70;;
37203;SDS011;23098;48.054;10.636;2022-07-29T02:51:49;2.28;;;1.70;;
37203;SDS011;23098;48.054;10.636;2022-07-29T02:54:37;4.95;;;1.90;;
37203;SDS011;23098;48.054;10.636;2022-07-29T03:02:35;4.70;;;1.60;;
37203;SDS011;23098;48.054;10.636;2022-07-29T03:05:03;5.03;;;1.60;;
37203;SDS011;23098;48.054;10.636;2022-07-29T03:07:31;6.50;;;2.63;;
37203;SDS011;23098;48.054;10.636;2022-07-29T03:09:58;3.85;;;2.08;;
37203;SDS011;23098;48.054;10.636;2022-07-29T03:12:25;3.40;;;2.38;;
37203;SDS011;23098;48.054;10.636;2022-07-29T03:14:52;3.97;;;2.00;;
37203;SDS011;23098;48.054;10.636;2022-07-29T03:17:18;10.43;;;2.70;;
37203;SDS011;23098;48.054;10.636;2022-07-29T03:19:45;6.30;;;2.30;;
37203;SDS011;23098;48.054;10.636;2022-07-29T03:22:11;3.35;;;2.10;;
37203;SDS011;23098;48.054;10.636;2022-07-29T03:24:37;3.83;;;2.22;;
37203;SDS011;23098;48.054;10.636;2022-07-29T03:27:03;7.28;;;2.47;;
37203;SDS011;23098;48.054;10.636;2022-07-29T03:29:29;8.90;;;2.42;;
37203;SDS011;23098;48.054;10.636;2022-07-29T03:31:55;3.55;;;2.70;;
37203;SDS011;23098;48.054;10.636;2022-07-29T03:34:20;6.57;;;2.90;;
37203;SDS011;23098;48.054;10.636;2022-07-29T03:36:46;3.45;;;2.13;;
37203;SDS011;23098;48.054;10.636;2022-07-29T03:39:13;3.25;;;2.17;;
37203;SDS011;23098;48.054;10.636;2022-07-29T03:41:43;3.05;;;2.30;;
37203;SDS011;23098;48.054;10.636;2022-07-29T03:44:12;4.90;;;2.65;;
37203;SDS011;23098;48.054;10.636;2022-07-29T03:46:40;2.90;;;2.17;;
37203;SDS011;23098;48.054;10.636;2022-07-29T03:49:08;5.53;;;2.40;;
37203;SDS011;23098;48.054;10.636;2022-07-29T03:51:35;4.63;;;2.55;;
37203;SDS011;23098;48.054;10.636;2022-07-29T03:54:02;5.25;;;2.30;;
37203;SDS011;23098;48.054;10.636;2022-07-29T03:56:29;5.60;;;2.28;;
37203;SDS011;23098;48.054;10.636;2022-07-29T03:58:55;4.32;;;2.35;;
37203;SDS011;23098;48.054;10.636;2022-07-29T04:01:21;3.42;;;2.42;;
37203;SDS011;23098;48.054;10.636;2022-07-29T04:03:48;4.50;;;2.22;;
37203;SDS011;23098;48.054;10.636;2022-07-29T04:06:14;2.85;;;1.90;;
37203;SDS011;23098;48.054;10.636;2022-07-29T04:08:40;3.75;;;2.08;;
37203;SDS011;23098;48.054;10.636;2022-07-29T04:11:05;6.57;;;2.25;;
37203;SDS011;23098;48.054;10.636;2022-07-29T04:13:31;2.35;;;2.10;;
37203;SDS011;23098;48.054;10.636;2022-07-29T04:15:57;3.85;;;2.40;;
37203;SDS011;23098;48.054;10.636;2022-07-29T04:18:23;4.90;;;2.33;;
37203;SDS011;23098;48.054;10.636;2022-07-29T04:20:49;6.72;;;2.00;;
37203;SDS011;23098;48.054;10.636;2022-07-29T04:23:15;2.40;;;1.85;;
37203;SDS011;23098;48.054;10.636;2022-07-29T04:25:41;3.90;;;2.00;;
37203;SDS011;23098;48.054;10.636;2022-07-29T04:28:07;2.20;;;1.67;;
37203;SDS011;23098;48.054;10.636;2022-07-29T04:30:34;3.63;;;1.58;;
37203;SDS011;23098;48.054;10.636;2022-07-29T04:33:00;3.10;;;1.52;;
37203;SDS011;23098;48.054;10.636;2022-07-29T04:35:27;4.18;;;1.58;;
37203;SDS011;23098;48.054;10.636;2022-07-29T04:37:54;2.20;;;1.50;;
37203;SDS011;23098;48.054;10.636;2022-07-29T04:40:19;2.90;;;1.58;;
37203;SDS011;23098;48.054;10.636;2022-07-29T04:43:00;3.58;;;1.50;;
37203;SDS011;23098;48.054;10.636;2022-07-29T04:45:26;4.65;;;1.20;;
37203;SDS011;23098;48.054;10.636;2022-07-29T04:47:52;2.47;;;1.20;;
37203;SDS011;23098;48.054;10.636;2022-07-29T04:50:18;4.25;;;1.50;;
37203;SDS011;23098;48.054;10.636;2022-07-29T04:52:44;1.77;;;1.30;;
37203;SDS011;23098;48.054;10.636;2022-07-29T04:55:09;3.15;;;1.60;;
37203;SDS011;23098;48.054;10.636;2022-07-29T04:57:35;3.40;;;1.50;;
37203;SDS011;23098;48.054;10.636;2022-07-29T05:00:01;1.45;;;1.20;;
37203;SDS011;23098;48.054;10.636;2022-07-29T05:02:27;3.63;;;1.50;;
37203;SDS011;23098;48.054;10.636;2022-07-29T05:04:52;2.45;;;1.40;;
37203;SDS011;23098;48.054;10.636;2022-07-29T05:07:18;3.30;;;1.15;;
37203;SDS011;23098;48.054;10.636;2022-07-29T05:09:43;2.83;;;1.40;;
37203;SDS011;23098;48.054;10.636;2022-07-29T05:12:09;3.30;;;1.35;;
37203;SDS011;23098;48.054;10.636;2022-07-29T05:14:34;2.90;;;1.38;;
37203;SDS011;23098;48.054;10.636;2022-07-29T05:17:00;3.63;;;1.30;;
37203;SDS011;23098;48.054;10.636;2022-07-29T05:19:25;3.08;;;1.20;;
37203;SDS011;23098;48.054;10.636;2022-07-29T05:21:51;1.30;;;1.20;;
37203;SDS011;23098;48.054;10.636;2022-07-29T05:24:17;1.40;;;1.30;;
37203;SDS011;23098;48.054;10.636;2022-07-29T05:26:43;2.55;;;1.30;;
37203;SDS011;23098;48.054;10.636;2022-07-29T05:29:08;3.00;;;1.30;;
37203;SDS011;23098;48.054;10.636;2022-07-29T05:31:34;2.10;;;1.30;;
37203;SDS011;23098;48.054;10.636;2022-07-29T05:34:00;3.45;;;1.35;;
37203;SDS011;23098;48.054;10.636;2022-07-29T05:36:26;3.70;;;1.50;;
37203;SDS011;23098;48.054;10.636;2022-07-29T05:38:51;4.88;;;1.38;;
37203;SDS011;23098;48.054;10.636;2022-07-29T05:41:18;4.40;;;1.30;;
37203;SDS011;23098;48.054;10.636;2022-07-29T05:43:44;4.40;;;1.30;;
37203;SDS011;23098;48.054;10.636;2022-07-29T05:46:10;3.53;;;1.30;;
37203;SDS011;23098;48.054;10.636;2022-07-29T05:48:35;5.10;;;1.40;;
37203;SDS011;23098;48.054;10.636;2022-07-29T05:51:01;2.70;;;1.42;;
37203;SDS011;23098;48.054;10.636;2022-07-29T05:53:27;6.55;;;1.63;;
37203;SDS011;23098;48.054;10.636;2022-07-29T05:55:52;3.65;;;1.45;;
37203;SDS011;23098;48.054;10.636;2022-07-29T05:58:18;2.45;;;1.10;;
37203;SDS011;23098;48.054;10.636;2022-07-29T06:00:44;3.00;;;1.33;;
37203;SDS011;23098;48.054;10.636;2022-07-29T06:03:10;4.22;;;1.30;;
37203;SDS011;23098;48.054;10.636;2022-07-29T06:05:36;2.42;;;1.40;;
37203;SDS011;23098;48.054;10.636;2022-07-29T06:08:01;4.68;;;1.40;;
37203;SDS011;23098;48.054;10.636;2022-07-29T06:10:27;4.45;;;1.20;;
37203;SDS011;23098;48.054;10.636;2022-07-29T06:12:53;3.38;;;1.33;;
37203;SDS011;23098;48.054;10.636;2022-07-29T06:15:18;5.35;;;1.30;;
37203;SDS011;23098;48.054;10.636;2022-07-29T06:17:44;5.35;;;1.50;;
37203;SDS011;23098;48.054;10.636;2022-07-29T06:20:10;4.90;;;1.20;;
37203;SDS011;23098;48.054;10.636;2022-07-29T06:22:35;4.00;;;1.17;;
37203;SDS011;23098;48.054;10.636;2022-07-29T06:25:01;2.45;;;1.08;;
37203;SDS011;23098;48.054;10.636;2022-07-29T06:27:27;4.35;;;1.27;;
37203;SDS011;23098;48.054;10.636;2022-07-29T06:29:52;1.17;;;1.00;;
37203;SDS011;23098;48.054;10.636;2022-07-29T06:32:18;4.55;;;1.30;;
37203;SDS011;23098;48.054;10.636;2022-07-29T06:34:44;2.72;;;1.13;;
37203;SDS011;23098;48.054;10.636;2022-07-29T06:37:09;3.13;;;1.10;;
37203;SDS011;23098;48.054;10.636;2022-07-29T06:39:35;3.17;;;1.00;;
37203;SDS011;23098;48.054;10.636;2022-07-29T06:42:01;3.72;;;1.17;;
37203;SDS011;23098;48.054;10.636;2022-07-29T06:44:28;1.48;;;1.10;;
37203;SDS011;23098;48.054;10.636;2022-07-29T06:46:54;3.75;;;1.30;;
37203;SDS011;23098;48.054;10.636;2022-07-29T06:49:20;2.42;;;1.17;;
37203;SDS011;23098;48.054;10.636;2022-07-29T06:51:46;3.28;;;1.25;;
37203;SDS011;23098;48.054;10.636;2022-07-29T06:54:12;2.60;;;1.25;;
37203;SDS011;23098;48.054;10.636;2022-07-29T06:56:37;2.90;;;1.23;;
37203;SDS011;23098;48.054;10.636;2022-07-29T06:59:03;1.85;;;1.30;;
37203;SDS011;23098;48.054;10.636;2022-07-29T07:01:30;3.50;;;1.40;;
37203;SDS011;23098;48.054;10.636;2022-07-29T07:03:55;2.95;;;1.50;;
37203;SDS011;23098;48.054;10.636;2022-07-29T07:06:21;2.17;;;1.50;;
37203;SDS011;23098;48.054;10.636;2022-07-29T07:08:46;4.18;;;1.70;;
37203;SDS011;23098;48.054;10.636;2022-07-29T07:11:12;3.85;;;1.50;;
37203;SDS011;23098;48.054;10.636;2022-07-29T07:13:38;3.10;;;1.50;;
37203;SDS011;23098;48.054;10.636;2022-07-29T07:16:03;3.47;;;1.50;;
37203;SDS011;23098;48.054;10.636;2022-07-29T07:18:29;3.63;;;1.48;;
37203;SDS011;23098;48.054;10.636;2022-07-29T07:20:55;1.60;;;1.40;;
37203;SDS011;23098;48.054;10.636;2022-07-29T07:23:22;4.20;;;1.48;;
37203;SDS011;23098;48.054;10.636;2022-07-29T07:25:47;3.38;;;1.80;;
37203;SDS011;23098;48.054;10.636;2022-07-29T07:28:12;2.72;;;1.70;;
37203;SDS011;23098;48.054;10.636;2022-07-29T07:30:38;2.90;;;1.40;;
37203;SDS011;23098;48.054;10.636;2022-07-29T07:33:04;2.72;;;1.70;;
37203;SDS011;23098;48.054;10.636;2022-07-29T07:35:30;5.00;;;1.50;;
37203;SDS011;23098;48.054;10.636;2022-07-29T07:37:56;3.20;;;1.60;;
37203;SDS011;23098;48.054;10.636;2022-07-29T07:40:21;4.40;;;1.80;;
37203;SDS011;23098;48.054;10.636;2022-07-29T07:42:47;3.30;;;1.45;;
37203;SDS011;23098;48.054;10.636;2022-07-29T07:45:13;4.05;;;1.70;;
37203;SDS011;23098;48.054;10.636;2022-07-29T07:47:38;2.53;;;1.60;;
37203;SDS011;23098;48.054;10.636;2022-07-29T07:50:05;5.75;;;1.70;;
37203;SDS011;23098;48.054;10.636;2022-07-29T07:52:32;3.80;;;1.55;;
37203;SDS011;23098;48.054;10.636;2022-07-29T07:54:57;5.25;;;1.70;;
37203;SDS011;23098;48.054;10.636;2022-07-29T07:57:23;3.45;;;1.50;;
37203;SDS011;23098;48.054;10.636;2022-07-29T07:59:48;2.55;;;1.55;;
37203;SDS011;23098;48.054;10.636;2022-07-29T08:02:14;3.95;;;1.58;;
37203;SDS011;23098;48.054;10.636;2022-07-29T08:04:39;2.33;;;1.67;;
37203;SDS011;23098;48.054;10.636;2022-07-29T08:07:06;3.38;;;1.40;;
37203;SDS011;23098;48.054;10.636;2022-07-29T08:09:31;2.08;;;1.50;;
37203;SDS011;23098;48.054;10.636;2022-07-29T08:11:58;2.45;;;1.45;;
37203;SDS011;23098;48.054;10.636;2022-07-29T08:14:24;2.65;;;1.50;;
37203;SDS011;23098;48.054;10.636;2022-07-29T08:16:50;3.42;;;1.92;;
37203;SDS011;23098;48.054;10.636;2022-07-29T08:19:16;2.95;;;1.65;;
37203;SDS011;23098;48.054;10.636;2022-07-29T08:21:41;2.40;;;1.50;;
37203;SDS011;23098;48.054;10.636;2022-07-29T08:24:07;1.52;;;1.40;;
37203;SDS011;23098;48.054;10.636;2022-07-29T08:26:51;1.85;;;1.30;;
37203;SDS011;23098;48.054;10.636;2022-07-29T08:29:16;1.48;;;1.38;;
37203;SDS011;23098;48.054;10.636;2022-07-29T08:31:42;1.42;;;1.20;;
37203;SDS011;23098;48.054;10.636;2022-07-29T08:34:10;1.85;;;1.48;;
37203;SDS011;23098;48.054;10.636;2022-07-29T08:36:36;4.55;;;1.90;;
37203;SDS011;23098;48.054;10.636;2022-07-29T08:39:03;2.13;;;1.60;;
37203;SDS011;23098;48.054;10.636;2022-07-29T08:41:29;2.40;;;1.70;;
37203;SDS011;23098;48.054;10.636;2022-07-29T08:43:56;7.53;;;1.73;;
37203;SDS011;23098;48.054;10.636;2022-07-29T08:46:38;2.28;;;1.50;;
37203;SDS011;23098;48.054;10.636;2022-07-29T08:49:07;3.10;;;1.80;;
37203;SDS011;23098;48.054;10.636;2022-07-29T08:51:32;2.53;;;1.58;;
37203;SDS011;23098;48.054;10.636;2022-07-29T08:54:00;12.38;;;2.05;;
37203;SDS011;23098;48.054;10.636;2022-07-29T08:56:27;7.88;;;2.00;;
37203;SDS011;23098;48.054;10.636;2022-07-29T08:58:53;6.72;;;1.70;;
37203;SDS011;23098;48.054;10.636;2022-07-29T09:01:23;2.60;;;1.77;;
37203;SDS011;23098;48.054;10.636;2022-07-29T09:03:50;1.40;;;1.30;;
37203;SDS011;23098;48.054;10.636;2022-07-29T09:06:20;4.32;;;1.80;;
37203;SDS011;23098;48.054;10.636;2022-07-29T09:08:47;2.15;;;1.70;;
37203;SDS011;23098;48.054;10.636;2022-07-29T09:11:13;1.90;;;1.70;;
37203;SDS011;23098;48.054;10.636;2022-07-29T09:13:39;2.45;;;2.00;;
37203;SDS011;23098;48.054;10.636;2022-07-29T09:16:05;4.18;;;1.70;;
37203;SDS011;23098;48.054;10.636;2022-07-29T09:18:35;2.78;;;1.90;;
37203;SDS011;23098;48.054;10.636;2022-07-29T09:21:03;2.17;;;1.80;;
37203;SDS011;23098;48.054;10.636;2022-07-29T09:26:36;2.50;;;2.00;;
37203;SDS011;23098;48.054;10.636;2022-07-29T09:29:11;2.00;;;1.70;;
37203;SDS011;23098;48.054;10.636;2022-07-29T09:31:41;3.15;;;1.90;;
37203;SDS011;23098;48.054;10.636;2022-07-29T09:34:11;3.45;;;1.88;;
37203;SDS011;23098;48.054;10.636;2022-07-29T09:36:41;2.50;;;1.98;;
37203;SDS011;23098;48.054;10.636;2022-07-29T09:39:08;2.30;;;1.98;;
37203;SDS011;23098;48.054;10.636;2022-07-29T09:41:51;4.57;;;1.85;;
37203;SDS011;23098;48.054;10.636;2022-07-29T09:44:18;7.13;;;2.15;;
37203;SDS011;23098;48.054;10.636;2022-07-29T09:49:20;4.18;;;2.15;;
37203;SDS011;23098;48.054;10.636;2022-07-29T09:51:45;3.00;;;2.10;;
37203;SDS011;23098;48.054;10.636;2022-07-29T09:54:27;2.63;;;1.80;;
37203;SDS011;23098;48.054;10.636;2022-07-29T09:56:54;2.65;;;2.13;;
37203;SDS011;23098;48.054;10.636;2022-07-29T09:59:20;4.63;;;2.08;;
37203;SDS011;23098;48.054;10.636;2022-07-29T10:01:49;3.13;;;2.40;;
37203;SDS011;23098;48.054;10.636;2022-07-29T10:04:18;2.70;;;1.95;;
37203;SDS011;23098;48.054;10.636;2022-07-29T10:06:59;5.32;;;2.15;;
37203;SDS011;23098;48.054;10.636;2022-07-29T10:09:26;2.65;;;2.25;;
37203;SDS011;23098;48.054;10.636;2022-07-29T10:12:11;4.78;;;2.30;;
37203;SDS011;23098;48.054;10.636;2022-07-29T10:14:39;2.20;;;2.00;;
37203;SDS011;23098;48.054;10.636;2022-07-29T10:17:06;6.32;;;2.20;;
37203;SDS011;23098;48.054;10.636;2022-07-29T10:19:33;2.88;;;1.92;;
37203;SDS011;23098;48.054;10.636;2022-07-29T10:22:01;6.18;;;2.10;;
37203;SDS011;23098;48.054;10.636;2022-07-29T10:24:28;2.00;;;1.77;;
37203;SDS011;23098;48.054;10.636;2022-07-29T10:26:55;2.28;;;1.70;;
37203;SDS011;23098;48.054;10.636;2022-07-29T10:29:22;2.00;;;1.80;;
37203;SDS011;23098;48.054;10.636;2022-07-29T10:35:06;2.00;;;1.75;;
37203;SDS011;23098;48.054;10.636;2022-07-29T10:37:59;2.95;;;1.48;;
37203;SDS011;23098;48.054;10.636;2022-07-29T10:41:12;2.13;;;1.85;;
37203;SDS011;23098;48.054;10.636;2022-07-29T10:43:51;1.77;;;1.50;;
37203;SDS011;23098;48.054;10.636;2022-07-29T10:46:21;4.40;;;1.50;;
37203;SDS011;23098;48.054;10.636;2022-07-29T10:54:19;2.75;;;1.90;;
37203;SDS011;23098;48.054;10.636;2022-07-29T11:05:01;5.90;;;2.78;;
37203;SDS011;23098;48.054;10.636;2022-07-29T11:07:31;3.45;;;2.28;;
37203;SDS011;23098;48.054;10.636;2022-07-29T11:15:13;2.63;;;1.83;;
37203;SDS011;23098;48.054;10.636;2022-07-29T11:28:56;4.45;;;2.00;;
37203;SDS011;23098;48.054;10.636;2022-07-29T11:31:45;5.10;;;2.10;;
37203;SDS011;23098;48.054;10.636;2022-07-29T11:34:26;2.45;;;1.90;;
37203;SDS011;23098;48.054;10.636;2022-07-29T11:39:36;3.35;;;1.88;;
37203;SDS011;23098;48.054;10.636;2022-07-29T11:47:30;2.47;;;1.90;;
37203;SDS011;23098;48.054;10.636;2022-07-29T11:49:57;4.13;;;1.98;;
37203;SDS011;23098;48.054;10.636;2022-07-29T11:52:38;2.83;;;1.98;;
37203;SDS011;23098;48.054;10.636;2022-07-29T11:55:14;3.42;;;2.03;;
37203;SDS011;23098;48.054;10.636;2022-07-29T11:57:47;2.17;;;1.75;;
37203;SDS011;23098;48.054;10.636;2022-07-29T12:00:26;2.28;;;2.08;;
37203;SDS011;23098;48.054;10.636;2022-07-29T12:03:25;3.42;;;2.30;;
37203;SDS011;23098;48.054;10.636;2022-07-29T12:05:52;2.75;;;1.80;;
37203;SDS011;23098;48.054;10.636;2022-07-29T12:08:19;2.60;;;2.28;;
37203;SDS011;23098;48.054;10.636;2022-07-29T12:10:47;4.15;;;2.30;;
37203;SDS011;23098;48.054;10.636;2022-07-29T12:13:15;5.45;;;2.17;;
37203;SDS011;23098;48.054;10.636;2022-07-29T12:15:42;3.25;;;2.28;;
37203;SDS011;23098;48.054;10.636;2022-07-29T12:18:19;4.93;;;2.20;;
37203;SDS011;23098;48.054;10.636;2022-07-29T12:20:45;2.75;;;2.00;;
37203;SDS011;23098;48.054;10.636;2022-07-29T12:23:12;8.43;;;2.30;;
37203;SDS011;23098;48.054;10.636;2022-07-29T12:25:39;2.33;;;1.90;;
37203;SDS011;23098;48.054;10.636;2022-07-29T12:28:07;4.57;;;2.22;;
37203;SDS011;23098;48.054;10.636;2022-07-29T12:30:36;3.75;;;1.92;;
37203;SDS011;23098;48.054;10.636;2022-07-29T12:33:22;5.40;;;2.10;;
37203;SDS011;23098;48.054;10.636;2022-07-29T12:35:56;3.58;;;2.13;;
37203;SDS011;23098;48.054;10.636;2022-07-29T12:38:23;4.32;;;2.22;;
37203;SDS011;23098;48.054;10.636;2022-07-29T12:40:48;5.55;;;2.20;;
37203;SDS011;23098;48.054;10.636;2022-07-29T12:43:26;6.47;;;2.05;;
37203;SDS011;23098;48.054;10.636;2022-07-29T12:45:52;6.18;;;2.03;;
37203;SDS011;23098;48.054;10.636;2022-07-29T12:51:01;2.67;;;2.00;;
37203;SDS011;23098;48.054;10.636;2022-07-29T12:53:28;9.43;;;2.15;;
37203;SDS011;23098;48.054;10.636;2022-07-29T12:55:55;5.65;;;1.90;;
37203;SDS011;23098;48.054;10.636;2022-07-29T13:01:03;12.10;;;1.92;;
37203;SDS011;23098;48.054;10.636;2022-07-29T13:03:46;3.67;;;1.80;;
37203;SDS011;23098;48.054;10.636;2022-07-29T13:06:33;7.07;;;2.10;;
37203;SDS011;23098;48.054;10.636;2022-07-29T13:09:00;3.35;;;2.00;;
37203;SDS011;23098;48.054;10.636;2022-07-29T13:11:51;1.70;;;1.60;;
37203;SDS011;23098;48.054;10.636;2022-07-29T13:17:00;2.13;;;1.70;;
37203;SDS011;23098;48.054;10.636;2022-07-29T13:19:39;4.05;;;1.65;;
37203;SDS011;23098;48.054;10.636;2022-07-29T13:22:07;2.20;;;2.00;;
37203;SDS011;23098;48.054;10.636;2022-07-29T13:24:44;4.78;;;2.20;;
37203;SDS011;23098;48.054;10.636;2022-07-29T13:27:13;4.57;;;2.08;;
37203;SDS011;23098;48.054;10.636;2022-07-29T13:29:40;2.10;;;1.90;;
37203;SDS011;23098;48.054;10.636;2022-07-29T13:32:06;3.20;;;1.88;;
37203;SDS011;23098;48.054;10.636;2022-07-29T13:34:32;2.28;;;1.80;;
37203;SDS011;23098;48.054;10.636;2022-07-29T13:36:57;2.58;;;1.70;;
37203;SDS011;23098;48.054;10.636;2022-07-29T13:39:24;4.90;;;2.15;;
37203;SDS011;23098;48.054;10.636;2022-07-29T13:41:50;2.42;;;1.90;;
37203;SDS011;23098;48.054;10.636;2022-07-29T13:44:16;2.10;;;1.90;;
37203;SDS011;23098;48.054;10.636;2022-07-29T13:46:42;2.10;;;1.90;;
37203;SDS011;23098;48.054;10.636;2022-07-29T13:49:07;2.22;;;2.00;;
37203;SDS011;23098;48.054;10.636;2022-07-29T13:51:33;2.75;;;2.10;;
37203;SDS011;23098;48.054;10.636;2022-07-29T13:53:58;4.30;;;1.90;;
37203;SDS011;23098;48.054;10.636;2022-07-29T13:56:24;6.13;;;1.80;;
37203;SDS011;23098;48.054;10.636;2022-07-29T13:58:49;1.92;;;1.70;;
37203;SDS011;23098;48.054;10.636;2022-07-29T14:01:14;5.10;;;2.05;;
37203;SDS011;23098;48.054;10.636;2022-07-29T14:03:41;3.78;;;1.60;;
37203;SDS011;23098;48.054;10.636;2022-07-29T14:06:08;3.40;;;1.42;;
37203;SDS011;23098;48.054;10.636;2022-07-29T14:08:33;1.70;;;1.40;;
37203;SDS011;23098;48.054;10.636;2022-07-29T14:10:59;2.05;;;1.40;;
37203;SDS011;23098;48.054;10.636;2022-07-29T14:13:25;1.60;;;1.33;;
37203;SDS011;23098;48.054;10.636;2022-07-29T14:15:50;1.48;;;1.30;;
37203;SDS011;23098;48.054;10.636;2022-07-29T14:18:16;3.17;;;1.30;;
37203;SDS011;23098;48.054;10.636;2022-07-29T14:20:42;4.80;;;1.30;;
37203;SDS011;23098;48.054;10.636;2022-07-29T14:23:07;2.13;;;1.50;;
37203;SDS011;23098;48.054;10.636;2022-07-29T14:25:33;4.40;;;1.38;;
37203;SDS011;23098;48.054;10.636;2022-07-29T14:28:00;1.58;;;1.40;;
37203;SDS011;23098;48.054;10.636;2022-07-29T14:30:25;1.95;;;1.40;;
37203;SDS011;23098;48.054;10.636;2022-07-29T14:32:52;1.33;;;1.23;;
37203;SDS011;23098;48.054;10.636;2022-07-29T14:35:18;1.50;;;1.30;;
37203;SDS011;23098;48.054;10.636;2022-07-29T14:37:52;1.63;;;1.33;;
37203;SDS011;23098;48.054;10.636;2022-07-29T14:40:18;1.45;;;1.27;;
37203;SDS011;23098;48.054;10.636;2022-07-29T14:42:43;1.88;;;1.30;;
37203;SDS011;23098;48.054;10.636;2022-07-29T14:45:09;2.78;;;1.10;;
37203;SDS011;23098;48.054;10.636;2022-07-29T14:47:35;1.88;;;1.40;;
37203;SDS011;23098;48.054;10.636;2022-07-29T14:50:02;1.65;;;1.23;;
37203;SDS011;23098;48.054;10.636;2022-07-29T14:52:28;1.35;;;1.25;;
37203;SDS011;23098;48.054;10.636;2022-07-29T14:58:29;1.30;;;1.20;;
37203;SDS011;23098;48.054;10.636;2022-07-29T15:03:31;1.60;;;1.20;;
37203;SDS011;23098;48.054;10.636;2022-07-29T15:08:33;1.98;;;1.30;;
37203;SDS011;23098;48.054;10.636;2022-07-29T15:18:42;2.67;;;1.50;;
37203;SDS011;23098;48.054;10.636;2022-07-29T15:21:08;2.40;;;1.30;;
37203;SDS011;23098;48.054;10.636;2022-07-29T15:23:33;2.40;;;1.50;;
37203;SDS011;23098;48.054;10.636;2022-07-29T15:26:02;2.20;;;1.70;;
37203;SDS011;23098;48.054;10.636;2022-07-29T15:28:28;1.85;;;1.60;;
37203;SDS011;23098;48.054;10.636;2022-07-29T15:30:54;3.78;;;1.50;;
37203;SDS011;23098;48.054;10.636;2022-07-29T15:33:19;3.17;;;1.63;;
37203;SDS011;23098;48.054;10.636;2022-07-29T15:35:45;1.80;;;1.52;;
37203;SDS011;23098;48.054;10.636;2022-07-29T15:38:10;2.58;;;1.65;;
37203;SDS011;23098;48.054;10.636;2022-07-29T15:40:37;2.30;;;1.63;;
37203;SDS011;23098;48.054;10.636;2022-07-29T15:43:05;2.75;;;1.50;;
37203;SDS011;23098;48.054;10.636;2022-07-29T15:45:40;2.67;;;1.80;;
37203;SDS011;23098;48.054;10.636;2022-07-29T15:48:26;3.13;;;1.52;;
37203;SDS011;23098;48.054;10.636;2022-07-29T15:50:52;1.70;;;1.60;;
37203;SDS011;23098;48.054;10.636;2022-07-29T15:53:18;1.95;;;1.77;;
37203;SDS011;23098;48.054;10.636;2022-07-29T15:55:43;2.40;;;1.70;;
37203;SDS011;23098;48.054;10.636;2022-07-29T15:58:09;2.22;;;1.70;;
37203;SDS011;23098;48.054;10.636;2022-07-29T16:00:34;1.98;;;1.50;;
37203;SDS011;23098;48.054;10.636;2022-07-29T16:03:00;2.65;;;1.77;;
37203;SDS011;23098;48.054;10.636;2022-07-29T16:05:25;2.00;;;1.65;;
37203;SDS011;23098;48.054;10.636;2022-07-29T16:07:53;1.70;;;1.60;;
37203;SDS011;23098;48.054;10.636;2022-07-29T16:10:19;6.85;;;2.00;;